createdAt,value
2022-12-01T00:01:02.554Z,101141.14
2022-12-01T00:06:12.925Z,101138.15
2022-12-01T00:11:16.418Z,101133.67
2022-12-01T00:16:20.016Z,101133.98
2022-12-01T00:21:24.969Z,101132.45
2022-12-01T00:26:28.586Z,101135.64
2022-12-01T00:31:31.883Z,101128.36
2022-12-01T00:36:36.212Z,101129.14
2022-12-01T00:41:40.115Z,101127.45
2022-12-01T00:46:43.761Z,101127.06
2022-12-01T00:51:47.825Z,101121.42
2022-12-01T00:56:51.501Z,101123.08
2022-12-01T01:01:55.307Z,101118.79
2022-12-01T01:06:59.380Z,101118.34
2022-12-01T01:12:03.037Z,101120.17
2022-12-01T01:17:06.423Z,101117.44
2022-12-01T01:22:10.112Z,101113.30
2022-12-01T01:27:16.382Z,101105.77
2022-12-01T01:32:19.561Z,101102.05
2022-12-01T01:37:23.170Z,101097.28
2022-12-01T01:42:26.620Z,101095.13
2022-12-01T01:47:41.132Z,101094.63
2022-12-01T01:52:52.425Z,101089.11
2022-12-01T01:57:56.985Z,101090.84
2022-12-01T02:03:01.558Z,101093.85
2022-12-01T02:08:12.829Z,101089.92
2022-12-01T02:13:19.394Z,101088.39
2022-12-01T02:19:18.419Z,101091.09
2022-12-01T02:24:50.754Z,101098.02
2022-12-01T02:30:19.584Z,101092.15
2022-12-01T02:35:50.824Z,101089.48
2022-12-01T02:41:20.482Z,101085.23
2022-12-01T02:46:30.868Z,101080.41
2022-12-01T02:51:36.910Z,101080.14
2022-12-01T02:56:40.215Z,101078.45
2022-12-01T03:01:54.703Z,101077.92
2022-12-01T03:07:33.777Z,101076.73
2022-12-01T03:13:03.984Z,101072.84
2022-12-01T03:18:19.704Z,101074.02
2022-12-01T03:23:28.915Z,101076.33
2022-12-01T03:28:38.056Z,101076.02
2022-12-01T03:33:49.491Z,101074.54
2022-12-01T03:38:57.469Z,101073.04
2022-12-01T03:44:11.454Z,101066.10
2022-12-01T03:49:18.643Z,101065.58
2022-12-01T03:54:47.685Z,101069.45
2022-12-01T03:59:52.150Z,101066.92
2022-12-01T04:04:55.369Z,101063.30
2022-12-01T04:09:58.768Z,101067.70
2022-12-01T04:15:06.757Z,101067.95
2022-12-01T04:20:11.009Z,101070.33
2022-12-01T04:25:14.500Z,101073.08
2022-12-01T04:30:18.703Z,101073.98
2022-12-01T04:35:22.696Z,101073.27
2022-12-01T04:40:26.370Z,101075.21
2022-12-01T04:45:29.864Z,101072.73
2022-12-01T04:50:33.511Z,101075.64
2022-12-01T04:55:39.758Z,101073.47
2022-12-01T05:00:43.715Z,101077.68
2022-12-01T05:05:47.705Z,101081.05
2022-12-01T05:10:56.830Z,101088.92
2022-12-01T05:16:08.422Z,101085.17
2022-12-01T05:21:11.898Z,101087.67
2022-12-01T05:26:15.688Z,101087.52
2022-12-01T05:31:19.094Z,101087.80
2022-12-01T05:36:22.359Z,101089.15
2022-12-01T05:41:25.491Z,101076.14
2022-12-01T05:46:28.817Z,101072.13
2022-12-01T05:51:32.442Z,101073.63
2022-12-01T05:56:36.194Z,101076.79
2022-12-01T06:01:40.184Z,101076.34
2022-12-01T06:06:43.690Z,101084.75
2022-12-01T06:11:52.262Z,101085.65
2022-12-01T06:16:56.496Z,101093.20
2022-12-01T06:21:59.929Z,101090.52
2022-12-01T06:27:03.699Z,101096.67
2022-12-01T06:32:08.661Z,101101.55
2022-12-01T06:37:16.580Z,101105.41
2022-12-01T06:42:21.545Z,101109.00
2022-12-01T06:47:27.274Z,101108.25
2022-12-01T06:52:32.645Z,101106.79
2022-12-01T06:57:39.859Z,101111.09
2022-12-01T07:02:44.331Z,101110.52
2022-12-01T07:07:53.778Z,101110.30
2022-12-01T07:13:01.360Z,101112.48
2022-12-01T07:18:06.090Z,101117.39
2022-12-01T07:23:11.453Z,101121.14
2022-12-01T07:28:17.045Z,101123.13
2022-12-01T07:33:21.856Z,101124.86
2022-12-01T07:38:28.634Z,101128.54
2022-12-01T07:43:33.535Z,101133.47
2022-12-01T07:48:39.102Z,101134.50
2022-12-01T07:53:46.161Z,101135.52
2022-12-01T07:58:50.138Z,101135.33
2022-12-01T08:03:57.450Z,101137.61
2022-12-01T08:09:01.563Z,101135.41
2022-12-01T08:14:05.682Z,101139.90
2022-12-01T08:19:11.261Z,101140.38
2022-12-01T08:24:15.750Z,101143.86
2022-12-01T08:29:20.470Z,101149.09
2022-12-01T08:34:24.006Z,101150.08
2022-12-01T08:39:28.747Z,101155.20
2022-12-01T08:44:31.955Z,101159.66
2022-12-01T08:49:35.487Z,101160.12
2022-12-01T08:54:38.722Z,101161.74
2022-12-01T08:59:46.030Z,101166.39
2022-12-01T09:04:53.083Z,101160.02
2022-12-01T09:09:57.510Z,101157.39
2022-12-01T09:15:01.311Z,101160.04
2022-12-01T09:20:05.587Z,101152.54
2022-12-01T09:25:15.363Z,101146.44
2022-12-01T09:30:20.422Z,101142.55
2022-12-01T09:35:25.255Z,101135.46
2022-12-01T09:40:34.954Z,101134.14
2022-12-01T09:45:45.105Z,101131.23
2022-12-01T09:50:49.066Z,101123.23
2022-12-01T09:56:03.080Z,101116.55
2022-12-01T10:01:19.814Z,101112.93
2022-12-01T10:06:59.652Z,101104.50
2022-12-01T10:12:28.296Z,101103.31
2022-12-01T10:17:47.341Z,101108.37
2022-12-01T10:23:02.434Z,101108.27
2022-12-01T10:28:32.158Z,101099.75
2022-12-01T10:33:46.184Z,101096.70
2022-12-01T10:38:51.153Z,101091.46
2022-12-01T10:44:01.818Z,101089.05
2022-12-01T10:49:18.522Z,101085.80
2022-12-01T10:54:31.648Z,101079.41
2022-12-01T10:59:51.383Z,101072.86
2022-12-01T11:05:01.437Z,101071.43
2022-12-01T11:10:24.972Z,101071.34
2022-12-01T11:15:40.185Z,101071.34
2022-12-01T11:20:44.319Z,101068.90
2022-12-01T11:26:12.267Z,101064.11
2022-12-01T11:31:17.823Z,101060.03
2022-12-01T11:36:33.009Z,101067.80
2022-12-01T11:41:41.322Z,101065.41
2022-12-01T11:46:55.771Z,101065.33
2022-12-01T11:52:31.779Z,101064.41
2022-12-01T11:57:36.644Z,101065.11
2022-12-01T12:03:09.923Z,101065.69
2022-12-01T12:08:34.801Z,101063.52
2022-12-01T12:13:46.047Z,101064.34
2022-12-01T12:19:18.442Z,101062.08
2022-12-01T12:24:41.904Z,101059.25
2022-12-01T12:30:14.377Z,101056.73
2022-12-01T12:35:30.118Z,101050.08
2022-12-01T12:40:42.936Z,101051.45
2022-12-01T12:46:04.272Z,101053.74
2022-12-01T12:51:20.877Z,101053.14
2022-12-01T12:56:27.146Z,101054.20
2022-12-01T13:01:40.644Z,101053.20
2022-12-01T13:06:53.291Z,101050.84
2022-12-01T13:12:27.838Z,101054.86
2022-12-01T13:17:41.004Z,101051.86
2022-12-01T13:22:47.600Z,101054.11
2022-12-01T13:27:53.641Z,101053.75
2022-12-01T13:33:05.636Z,101047.77
2022-12-01T13:38:34.249Z,101047.43
2022-12-01T13:43:45.488Z,101045.62
2022-12-01T13:48:49.650Z,101043.98
2022-12-01T13:54:25.890Z,101043.14
2022-12-01T14:00:00.440Z,101042.07
2022-12-01T14:05:23.495Z,101046.12
2022-12-01T14:10:31.945Z,101046.69
2022-12-01T14:15:43.976Z,101047.52
2022-12-01T14:20:49.738Z,101044.29
2022-12-01T14:26:21.352Z,101045.80
2022-12-01T14:31:47.360Z,101048.64
2022-12-01T14:36:56.950Z,101047.42
2022-12-01T14:42:04.471Z,101051.10
2022-12-01T14:47:12.383Z,101053.59
2022-12-01T14:52:24.338Z,101054.79
2022-12-01T14:57:45.006Z,101046.88
2022-12-01T15:02:59.417Z,101046.90
2022-12-01T15:13:54.887Z,101037.77
2022-12-01T15:19:00.066Z,101036.81
2022-12-01T15:24:24.580Z,101035.30
2022-12-01T15:29:45.860Z,101030.63
2022-12-01T15:34:53.461Z,101024.13
2022-12-01T15:40:47.743Z,101028.57
2022-12-01T15:46:02.350Z,101032.52
2022-12-01T15:51:09.199Z,101030.78
2022-12-01T15:56:13.291Z,101033.27
2022-12-01T16:01:21.518Z,101026.77
2022-12-01T16:06:29.083Z,101024.75
2022-12-01T16:12:08.303Z,101025.38
2022-12-01T16:17:11.987Z,101027.42
2022-12-01T16:22:21.713Z,101021.00
2022-12-01T16:27:28.657Z,101021.48
2022-12-01T16:32:41.590Z,101023.20
2022-12-01T16:37:45.604Z,101026.14
2022-12-01T16:42:50.426Z,101030.86
2022-12-01T16:47:55.145Z,101029.30
2022-12-01T16:52:58.466Z,101029.52
2022-12-01T16:58:02.201Z,101024.34
2022-12-01T17:03:08.278Z,101019.92
2022-12-01T17:08:12.825Z,101021.17
2022-12-01T17:13:18.712Z,101020.90
2022-12-01T17:18:24.082Z,101018.88
2022-12-01T17:23:29.204Z,101019.24
2022-12-01T17:28:34.198Z,101018.55
2022-12-01T17:33:39.171Z,101021.77
2022-12-01T17:38:52.403Z,101020.73
2022-12-01T17:43:56.520Z,101013.84
2022-12-01T17:48:59.934Z,101012.27
2022-12-01T17:54:05.074Z,101013.98
2022-12-01T17:59:09.105Z,101015.60
2022-12-01T18:04:12.910Z,101020.98
2022-12-01T18:09:17.439Z,101021.20
2022-12-01T18:14:21.739Z,101021.27
2022-12-01T18:19:26.698Z,101018.55
2022-12-01T18:24:30.629Z,101015.94
2022-12-01T18:29:35.888Z,101022.52
2022-12-01T18:34:40.241Z,101021.27
2022-12-01T18:39:45.225Z,101021.11
2022-12-01T18:44:50.222Z,101018.65
2022-12-01T18:49:55.666Z,101025.51
2022-12-01T18:55:00.514Z,101016.88
2022-12-01T19:00:06.829Z,101015.54
2022-12-01T19:05:11.087Z,101013.43
2022-12-01T19:10:16.665Z,101015.70
2022-12-01T19:15:21.715Z,101012.65
2022-12-01T19:20:26.283Z,101012.90
2022-12-01T19:25:30.624Z,101015.16
2022-12-01T19:30:35.839Z,101015.11
2022-12-01T19:35:40.781Z,101015.80
2022-12-01T19:40:45.146Z,101012.08
2022-12-01T19:45:49.707Z,101012.96
2022-12-01T19:50:53.807Z,101011.64
2022-12-01T19:56:04.135Z,101009.48
2022-12-01T20:01:19.237Z,101005.53
2022-12-01T20:06:29.005Z,101006.82
2022-12-01T20:11:36.972Z,101006.68
2022-12-01T20:16:41.108Z,101009.45
2022-12-01T20:21:45.740Z,101009.83
2022-12-01T20:30:42.435Z,101009.33
2022-12-01T20:35:46.837Z,101015.12
2022-12-01T20:40:53.391Z,101014.59
2022-12-01T20:45:58.840Z,101011.96
2022-12-01T20:51:06.033Z,101013.27
2022-12-01T20:56:12.608Z,101011.20
2022-12-01T21:01:18.679Z,101010.48
2022-12-01T21:06:23.250Z,101012.23
2022-12-01T21:11:49.699Z,101013.30
2022-12-01T21:16:59.008Z,101014.71
2022-12-01T21:22:11.491Z,101013.41
2022-12-01T21:27:18.838Z,101012.52
2022-12-01T21:32:31.071Z,101014.77
2022-12-01T21:37:35.918Z,101017.33
2022-12-01T21:42:39.914Z,101015.80
2022-12-01T21:47:43.740Z,101013.02
2022-12-01T21:52:48.309Z,101012.05
2022-12-01T21:57:53.521Z,101007.65
2022-12-01T22:03:25.108Z,101009.30
2022-12-01T22:08:36.339Z,101005.43
2022-12-01T22:14:36.303Z,101009.80
2022-12-01T22:19:44.962Z,101005.03
2022-12-01T22:24:52.944Z,101003.60
2022-12-01T22:30:20.836Z,100998.85
2022-12-01T22:35:43.011Z,100996.61
2022-12-01T22:40:49.856Z,100998.17
2022-12-01T22:46:01.290Z,100987.85
2022-12-01T22:51:17.263Z,100990.34
2022-12-01T22:56:36.960Z,100991.91
2022-12-01T23:01:48.594Z,100995.48
2022-12-01T23:06:54.872Z,100994.70
2022-12-01T23:12:21.438Z,100990.99
2022-12-01T23:17:28.896Z,100990.98
2022-12-01T23:22:32.698Z,100990.39
2022-12-01T23:27:38.452Z,100986.38
2022-12-01T23:32:43.431Z,100982.27
2022-12-01T23:37:48.382Z,100972.98
2022-12-01T23:42:52.293Z,100973.40
2022-12-01T23:47:57.099Z,100974.27
2022-12-01T23:53:05.005Z,100973.83
2022-12-01T23:58:16.181Z,100973.30
